x

Gravelly Shoals Light Mi (gslm4) Weather Station

6:15am - Tue 2nd Sep 2014 All times are CDT. -5 hours from GMT.

  • Wind
    11mph, 14mph gusts
  • Air Temp 68°f
  • Sea Pressure 1010.8mb
  • Gravelly Shoals Light Mi
  • Gravelly Shoals Light Mi

More Historic Weather Station data

Upgrade to MSW Pro to gain access to the past 30 days of data for over 8000 Wavebouys and Weather Stations around the globe.

Join Pro

Comparision Forecast

View Surf forecast
   
Tue 09/02 6:15am 11 14 mph 1010.8mb 68f
5:40am 10 14 mph 1010.2mb 68f
5:30am 13 14 mph 1010.2mb 69f
5:20am 10 13 mph 1010.2mb 69f
5:14am 10 17 mph 1010.2mb 69f
5:10am 11 15 mph 1010.2mb 69f
5:00am 14 16 mph 1010.2mb 69f
4:40am 15 17 mph 1010.2mb 69f
4:30am 15 17 mph 1010.2mb 70f
4:14am 15 18 mph 1010.2mb 70f
4:10am 14 17 mph 1010.2mb 70f
4:00am 13 16 mph 1010.2mb 70f
3:40am 14 16 mph 1009.8mb 70f
3:30am 15 18 mph 1009.8mb 71f
3:20am 15 17 mph 1009.8mb 71f
3:13am 15 17 mph 1009.8mb 71f
3:10am 15 16 mph 1009.8mb 71f
3:00am 14 15 mph 1009.8mb 71f
2:40am 15 16 mph 1009.8mb 71f
2:30am 14 17 mph 1009.8mb 71f
2:20am 15 16 mph 1009.8mb 71f
2:13am 14 16 mph 1009.8mb 71f
2:10am 14 16 mph 1009.8mb 71f
2:00am 13 14 mph 1009.8mb 71f
1:40am 11 13 mph 1009.5mb 71f
1:30am 11 15 mph 1009.8mb 71f
1:20am 13 16 mph 1009.8mb 71f
1:13am 14 16 mph 1009.8mb 71f
1:10am 14 16 mph 1009.5mb 71f
1:00am 13 15 mph 1009.5mb 71f
12:40am 14 16 mph 1009.5mb 71f
12:30am 14 16 mph 1009.5mb 71f
12:20am 14 16 mph 1009.5mb 72f
12:12am 15 23 mph 1009.5mb 72f
12:10am 16 17 mph 1009.5mb 72f
12:00am 16 18 mph 1009.1mb 72f
Mon 09/01 11:40pm 18 22 mph 1009.1mb 72f
11:30pm 18 23 mph 1009.1mb 72f
11:20pm 20 23 mph 1009.1mb 73f
11:12pm 17 24 mph 1009.1mb 73f
11:10pm 17 22 mph 1009.1mb 73f
10:40pm 20 23 mph 1008.8mb 73f
10:30pm 22 24 mph 1008.8mb 73f
10:20pm 20 23 mph 1008.8mb 73f
10:11pm 20 23 mph 1008.8mb 73f
10:10pm 20 23 mph 1008.8mb 73f
10:00pm 14 18 mph 1008.5mb 73f
9:40pm 10 17 mph 1008.5mb 73f
9:30pm 10 14 mph 1008.5mb 73f
9:20pm 8 13 mph 1008.5mb 73f
9:11pm 3 15 mph 1008.5mb 73f
9:10pm 3 7 mph 1008.5mb 73f
9:00pm 3 9 mph 1008.5mb 73f
8:40pm 5 8 mph 1008.5mb 72f
8:30pm 7 11 mph 1008.5mb 72f
8:20pm 8 15 mph 1008.5mb 72f
8:11pm 10 23 mph 1008.1mb 72f
8:10pm 10 16 mph 1008.1mb 72f
8:00pm 11 16 mph 1008.1mb 72f
7:40pm 13 17 mph 1007.8mb 72f
7:30pm 15 20 mph 1007.5mb 72f
7:20pm 20 23 mph 1007.5mb 72f
7:10pm 20 24 mph 1007.1mb 72f
7:00pm 22 24 mph 1007.1mb 72f
6:30pm 8 11 mph 1007.5mb 72f
6:20pm 7 9 mph 1007.1mb 73f
6:10pm 5 15 mph 1007.1mb 73f
6:00pm 5 9 mph 1007.1mb 73f
5:30pm 2 14 mph 1006.8mb 72f
5:20pm 9 15 mph 1006.8mb 72f
5:10pm 6 10 mph 1006.8mb 71f
5:09pm 5 10 mph 1006.8mb 71f
5:00pm 3 7 mph 1006.4mb 71f
4:40pm 3 8 mph 1006.4mb 71f
4:30pm 3 9 mph 1006.4mb 71f
4:20pm 5 11 mph 1006.8mb 70f
4:10pm 6 10 mph 1006.8mb 70f
4:09pm 7
mph
1006.8mb 70f
4:00pm 3 22 mph 1006.8mb 70f
3:40pm 31 36 mph 1006.8mb 71f
3:30pm 24 30 mph 1006.8mb 71f
3:21pm 5 30 mph 1006.4mb 71f
3:20pm 5 24 mph 1006.4mb 71f
3:10pm 15 23 mph 1006.1mb 75f
3:08pm 16 23 mph 1006.4mb 76f
3:00pm 11 15 mph 1006.4mb 76f
2:40pm 16 22 mph 1006.4mb 75f
2:30pm 15 22 mph 1006.4mb 76f
2:20pm 15 21 mph 1006.8mb 76f
2:10pm 14 17 mph 1006.4mb 76f
2:08pm 14 28 mph 1006.8mb 76f
2:00pm 11 15 mph 1006.8mb 76f
1:40pm 11 22 mph 1006.8mb 76f
1:30pm 21 28 mph 1006.4mb 76f
1:20pm 24 28 mph 1006.4mb 76f
1:10pm 18 23 mph 1006.4mb 76f
1:08pm 18 24 mph 1006.8mb 76f
1:00pm 23 24 mph 1006.8mb 76f
12:40pm 15 18 mph 1007.8mb 76f
12:30pm 11 16 mph 1007.8mb 75f
12:10pm 17 21 mph 1008.1mb 75f
12:07pm 17 21 mph 1008.1mb 75f
12:00pm 15 18 mph 1008.5mb 75f
11:40am 16 18 mph 1008.8mb 75f
11:30am 14 16 mph 1009.1mb 75f
11:20am 10 16 mph 1009.5mb 75f
11:10am 9 14 mph 1009.5mb 74f
11:07am 7 20 mph 1009.5mb 74f
11:00am 8 11 mph 1009.8mb 74f
10:40am 14 17 mph 1010.2mb 74f
10:30am 16 18 mph 1010.2mb 74f
10:20am 17 20 mph 1010.2mb 73f
10:10am 17 20 mph 1010.2mb 73f
10:06am 18 21 mph 1010.2mb 73f
10:00am 17 21 mph 1010.2mb 73f
9:40am 18 20 mph 1010.2mb 73f
9:30am 16 20 mph 1010.5mb 73f
9:20am 14 18 mph 1010.5mb 73f
9:10am 15 17 mph 1010.8mb 72f
9:06am 15 18 mph 1010.8mb 72f
9:00am 14 17 mph 1010.8mb 72f
8:40am 15 17 mph 1011.2mb 72f
8:30am 13 17 mph 1011.2mb 72f
8:20am 15 18 mph 1011.2mb 71f
8:10am 15 17 mph 1011.2mb 72f
8:06am 14 20 mph 1011.5mb 71f
8:00am 14 18 mph 1011.5mb 71f
7:40am 10 17 mph 1011.5mb 71f
7:30am 14 18 mph 1011.5mb 70f
7:20am 14 20 mph 1011.9mb 71f
7:10am 15 20 mph 1012.2mb 71f
7:05am 15 18 mph 1012.2mb 70f
6:50am 14 17 mph 1012.2mb 71f
6:40am 10 14 mph 1012.2mb 70f
6:30am 10 13 mph 1012.2mb 70f
6:20am 7 11 mph 1012.5mb 70f
6:10am 8 11 mph 1012.5mb 70f
6:05am 8 17 mph 1012.5mb 70f
6:00am 11 15 mph 1012.2mb 70f
5:50am 11 17 mph 1012.2mb 69f
5:40am 16 17 mph 1012.2mb 69f
5:30am 9 11 mph 1012.2mb 69f
5:20am 7 9 mph 1012.2mb 69f
5:10am 5 8 mph 1012.5mb 69f
5:04am 5 13 mph 1012.5mb 69f
5:00am 5 7 mph 1012.5mb 69f
4:50am 1 6 mph 1012.9mb 69f
4:40am 3 7 mph 1012.5mb 70f
4:30am 6 10 mph 1012.5mb 70f
4:20am 8 13 mph 1012.9mb 70f
4:10am 10 14 mph 1012.9mb 70f
4:04am 13 14 mph 1012.9mb 70f
4:00am 8 14 mph 1012.9mb 70f
3:50am 10 13 mph 1012.5mb 70f
3:40am 10 11 mph 1012.5mb 70f
3:30am 9 11 mph 1012.5mb 70f
3:20am 10 11 mph 1012.5mb 70f
3:10am 10 11 mph 1012.5mb 70f
3:04am 10 11 mph 1012.5mb 70f
3:00am 9 10 mph 1012.5mb 70f
2:50am 8 11 mph 1012.5mb 70f
2:40am 10
mph
1012.9mb 70f
2:30am 8 9 mph 1012.9mb 70f
2:20am 8 11 mph 1013.2mb 70f
2:10am 10 13 mph 1013.2mb 70f
2:03am 11 16 mph 1013.2mb 70f
2:00am 11 13 mph 1013.2mb 70f
1:50am 13 14 mph 1013.2mb 70f
1:30am 13 14 mph 1013.2mb 70f
1:20am 14 15 mph 1013.2mb 70f
1:10am 14 16 mph 1013.2mb 70f
1:03am 14 18 mph 1013.2mb 71f
1:00am 15 16 mph 1013.2mb 71f
12:50am 15 17 mph 1013.2mb 71f
12:40am 16 17 mph 1013.2mb 71f
12:30am 17 18 mph 1013.2mb 71f
12:20am 16 18 mph 1012.9mb 71f
12:10am 16 18 mph 1012.9mb 71f
12:02am 16 17 mph 1012.9mb 71f
12:00am 16
mph
1012.9mb 71f
Sun 08/31 11:50pm 15 17 mph 1012.9mb 71f
11:40pm 16 17 mph 1012.9mb 71f
11:30pm 15 16 mph 1012.9mb 70f
11:20pm 16 17 mph 1013.2mb 70f
11:10pm 15 16 mph 1013.2mb 70f
11:02pm 13 15 mph 1012.9mb 70f
11:00pm 13 15 mph 1012.9mb 70f
10:50pm 13 14 mph 1013.2mb 70f
10:40pm 13 14 mph 1013.2mb 70f
10:30pm 11 13 mph 1013.2mb 70f
10:20pm 11 13 mph 1013.2mb 70f
10:10pm 13
mph
1013.5mb 70f
10:02pm 13 18 mph 1013.5mb 70f
10:00pm 13 14 mph 1013.5mb 70f
9:50pm 13 14 mph 1013.5mb 70f
9:40pm 15 17 mph 1013.5mb 70f
9:30pm 15 17 mph 1013.9mb 70f
9:20pm 16 18 mph 1013.9mb 70f
9:10pm 17 18 mph 1013.9mb 70f
9:01pm 17 18 mph 1013.9mb 70f
9:00pm 17 18 mph 1013.9mb 70f
8:50pm 15 16 mph 1013.9mb 70f
8:40pm 15 16 mph 1013.9mb 70f
8:30pm 13 14 mph 1013.9mb 72f
8:10pm 10
mph
1014.2mb 73f
8:01pm 10 11 mph 1014.2mb 73f
8:00pm 10
mph
1014.2mb 73f
7:50pm 10 11 mph 1014.2mb 73f
7:40pm 11
mph
1013.9mb 73f
7:30pm 10 11 mph 1013.9mb 73f
7:20pm 10
mph
1013.9mb 73f
7:10pm 9
mph
1013.9mb 73f
7:00pm 8 9 mph 1013.9mb 72f
6:50pm 6 8 mph 1013.9mb 74f
6:00pm 1 5 mph 1013.9mb 75f
5:40pm  -  mph 1013.9mb 81f
5:30pm  -  2 mph 1013.9mb 79f
5:20pm  -  2 mph 1013.9mb 78f
5:10pm  -  2 mph 1013.9mb 78f
5:00pm  -  2 mph 1013.9mb 76f
4:50pm 1 5 mph 1013.9mb 76f
4:40pm  -  5 mph 1013.9mb 75f
4:30pm 2 5 mph 1013.9mb 74f
4:20pm 2 6 mph 1013.9mb 75f
4:10pm 2 5 mph 1013.9mb 74f
4:00pm 2 5 mph 1013.9mb 74f
3:50pm  -  6 mph 1013.9mb 74f
3:44pm 5 9 mph 1013.9mb 74f
3:40pm 5 6 mph 1013.9mb 74f
3:30pm 3 7 mph 1013.9mb 74f
3:20pm 3 7 mph 1013.9mb 73f
3:10pm 5 9 mph 1013.9mb 73f
2:50pm 5 7 mph 1014.2mb 73f
2:43pm 5 14 mph 1014.2mb 73f
2:40pm 5 8 mph 1014.2mb 73f
2:30pm 6 9 mph 1014.2mb 73f
2:20pm 6 10 mph 1014.2mb 73f
2:10pm 7 11 mph 1014.2mb 72f
2:00pm 9 11 mph 1014.2mb 72f
1:50pm 11 14 mph 1014.2mb 72f
1:43pm 8 13 mph 1014.2mb 72f
1:40pm 8 13 mph 1014.2mb 72f
1:30pm 8 10 mph 1014.2mb 72f
1:20pm 6 10 mph 1014.2mb 71f
1:10pm 6 10 mph 1014.6mb 71f
1:00pm 6 9 mph 1014.6mb 71f
12:50pm 6 9 mph 1014.2mb 71f
12:42pm 5 10 mph 1014.6mb 71f
12:40pm 6 7 mph 1014.6mb 71f
12:30pm 5 6 mph 1014.2mb 71f
12:20pm 2 9 mph 1014.6mb 70f
12:10pm 6 9 mph 1014.6mb 70f
12:00pm 6 8 mph 1014.6mb 70f
11:50am 6 10 mph 1014.6mb 70f
11:42am 7 13 mph 1014.6mb 70f
10:42am 7 17 mph 1014.6mb 70f
10:40am 8 10 mph 1014.6mb 70f
10:30am 9 10 mph 1014.6mb 69f
10:20am 11 15 mph 1014.6mb 69f
10:10am 13 15 mph 1014.6mb 69f
10:00am 13 17 mph 1014.6mb 69f
9:50am 16 17 mph 1014.6mb 69f
9:41am 13 18 mph 1014.6mb 69f
9:30am 13 14 mph 1014.6mb 68f
9:20am 11 13 mph 1014.6mb 68f
9:10am 10 13 mph 1014.6mb 68f
9:00am 13 15 mph 1014.6mb 68f
8:50am 15 18 mph 1014.2mb 68f
8:41am 15 22 mph 1014.2mb 68f
8:40am 15 20 mph 1014.2mb 68f
8:30am 17 22 mph 1014.6mb 67f
8:20am 17 21 mph 1014.6mb 67f
8:10am 17 20 mph 1014.6mb 67f
8:00am 17 20 mph 1014.6mb 67f
7:50am 15 18 mph 1014.6mb 67f
7:40am 14 17 mph 1014.2mb 67f
7:30am 13 16 mph 1014.2mb 67f
7:20am 13 16 mph 1014.2mb 67f
7:10am 13 16 mph 1013.9mb 67f
7:00am 13 15 mph 1013.9mb 67f
6:50am 15 17 mph 1013.9mb 67f
6:40am 15 17 mph 1013.5mb 67f
6:30am 16 22 mph 1013.5mb 67f
6:20am 18 22 mph 1013.5mb 67f
6:10am 20 22 mph 1013.5mb 67f
6:00am 21 23 mph 1013.2mb 68f
5:50am 18 23 mph 1013.2mb 68f
5:40am 20 22 mph 1012.9mb 69f
5:30am 21 24 mph 1012.9mb 69f
5:20am 24 26 mph 1012.5mb 69f
5:10am 22 24 mph 1012.5mb 69f
5:00am 21 26 mph 1012.5mb 69f
4:50am 21 25 mph 1012.2mb 69f
4:40am 22 25 mph 1011.9mb 69f
4:30am 23 25 mph 1011.9mb 69f
4:20am 21 25 mph 1011.9mb 70f
4:10am 22 25 mph 1011.9mb 70f
4:00am 21 25 mph 1011.9mb 69f
3:50am 22 25 mph 1011.9mb 70f
3:40am 21 24 mph 1011.9mb 70f
3:30am 21 23 mph 1012.2mb 70f
3:20am 20 28 mph 1011.9mb 70f
3:10am 18 22 mph 1012.2mb 70f
3:00am 21 24 mph 1012.2mb 70f
2:50am 22 25 mph 1012.2mb 70f
2:40am 21 25 mph 1012.2mb 70f
2:30am 23 28 mph 1011.9mb 71f
2:20am 23 26 mph 1011.9mb 71f
2:19am 23 26 mph 1011.9mb 71f
2:10am 22 26 mph 1011.9mb 71f
2:00am 22 24 mph 1011.9mb 71f
1:50am 22 23 mph 1011.9mb 71f
1:40am 21 24 mph 1011.9mb 71f
1:30am 21 23 mph 1011.9mb 71f
1:20am 21 25 mph 1011.9mb 71f
1:19am 22 29 mph 1011.9mb 71f
1:10am 21 25 mph 1011.9mb 72f
1:00am 20 25 mph 1011.9mb 72f
12:50am 23 28 mph 1011.9mb 72f
12:40am 23 29 mph 1011.9mb 72f
12:30am 24 28 mph 1011.9mb 72f
12:20am 24 26 mph 1011.9mb 72f
12:18am 24 28 mph 1011.5mb 73f
12:10am 25 28 mph 1011.5mb 73f
12:00am 20 25 mph 1011.5mb 73f
Sat 08/30 11:50pm 18 23 mph 1011.5mb 73f
11:40pm 7 11 mph 1011.5mb 72f
11:30pm 8 18 mph 1011.5mb 73f
11:20pm 10 16 mph 1011.5mb 72f
11:18pm 10 21 mph 1011.5mb 72f
11:10pm 3 6 mph 1011.2mb 72f
10:50pm 16 21 mph 1011.5mb 73f
10:40pm 17 18 mph 1011.2mb 72f
10:30pm 17 21 mph 1011.2mb 72f
10:20pm 20 21 mph 1010.8mb 73f
10:18pm 18 22 mph 1010.8mb 73f
10:10pm 18 20 mph 1010.8mb 73f
10:00pm 17 21 mph 1010.5mb 73f
9:50pm 18 20 mph 1010.5mb 73f
9:40pm 18 22 mph 1010.8mb 73f
9:30pm 20 22 mph 1010.8mb 73f
9:20pm 20 22 mph 1010.8mb 73f
9:17pm 20 25 mph 1010.8mb 73f
9:10pm 18 22 mph 1010.8mb 73f
9:00pm 20 23 mph 1010.5mb 73f
8:50pm 21 24 mph 1010.5mb 73f
8:40pm 21 25 mph 1010.5mb 74f
8:30pm 20 23 mph 1010.5mb 73f
8:20pm 16 20 mph 1010.2mb 74f
8:17pm 8 26 mph 1010.2mb 74f
8:10pm 3 10 mph 1010.2mb 73f
8:00pm 8 14 mph 1009.8mb 73f
7:50pm 14 16 mph 1009.8mb 73f
7:40pm 13 18 mph 1009.8mb 72f
7:30pm 16 26 mph 1009.5mb 72f
7:20pm 24 30 mph 1009.5mb 72f
7:16pm 22
mph
1009.5mb 72f
7:10pm 20 23 mph 1009.5mb 72f
7:00pm 18 26 mph 1009.5mb 72f
6:50pm 21 30 mph 1009.5mb 72f
6:30pm 20 30 mph 1009.5mb 73f
6:20pm 21 30 mph 1009.5mb 73f
6:10pm 22 25 mph 1009.5mb 73f
6:00pm 13 20 mph 1009.5mb 73f
5:50pm 13 16 mph 1009.8mb 72f
5:30pm 8 11 mph 1009.5mb 71f
5:20pm 8 16 mph 1009.5mb 70f
5:16pm 3
mph
1009.8mb 70f
5:10pm 11 23 mph 1009.8mb 70f
5:00pm 17 22 mph 1009.8mb 69f
4:50pm 14 26 mph 1010.5mb 69f
4:40pm 24 44 mph 1010.8mb 69f
4:33pm 11 44 mph 1011.5mb 75f
4:30pm 9 18 mph 1010.2mb 75f
4:20pm 8 21 mph 1010.2mb 76f
4:15pm 18 24 mph 1009.5mb 76f
4:10pm 17 21 mph 1009.5mb 76f
4:00pm 16 24 mph 1009.5mb 75f
3:50pm 21 22 mph 1009.5mb 75f
3:40pm 16 21 mph 1009.8mb 75f
3:30pm 11 15 mph 1009.8mb 75f
3:20pm 5 7 mph 1010.2mb 75f
3:15pm 5 15 mph 1010.2mb 75f
3:10pm 6 7 mph 1010.2mb 75f
3:00pm 3 8 mph 1010.5mb 74f
2:50pm 7 13 mph 1010.5mb 75f
2:40pm 9 13 mph 1010.5mb 75f
2:30pm 10 13 mph 1010.5mb 74f
2:20pm 11 15 mph 1010.8mb 74f
2:14pm 8 13 mph 1010.8mb 74f
2:10pm 7 13 mph 1011.2mb 74f
2:00pm 7 10 mph 1011.2mb 74f
1:50pm 6 10 mph 1011.2mb 74f
1:40pm 5 7 mph 1011.5mb 73f
1:30pm 3 6 mph 1011.5mb 73f
1:20pm 1 7 mph 1011.9mb 72f
1:14pm 3 11 mph 1011.9mb 72f
1:10pm 7 8 mph 1011.9mb 72f
1:00pm 5 10 mph 1011.9mb 72f
12:50pm 8 11 mph 1011.9mb 72f
12:40pm 2 5 mph 1012.2mb 72f
12:30pm 2 5 mph 1012.2mb 72f
12:13pm 2 13 mph 1012.2mb 72f
12:10pm 3 9 mph 1012.2mb 72f
12:00pm 7 10 mph 1012.2mb 72f
11:50am 8 10 mph 1012.2mb 72f
11:40am 7 10 mph 1012.2mb 72f
11:30am 8 11 mph 1011.9mb 72f
11:20am 8 13 mph 1011.9mb 72f
11:13am 8 14 mph 1012.2mb 72f
11:10am 8 11 mph 1012.2mb 72f
11:00am 9 13 mph 1012.2mb 72f
10:50am 6 14 mph 1012.2mb 71f
10:40am 8 11 mph 1012.5mb 71f
10:30am 6 10 mph 1012.5mb 71f
10:20am 3 10 mph 1012.2mb 71f
10:13am 6 18 mph 1012.2mb 71f
10:10am 8 18 mph 1012.2mb 71f
10:00am 6 14 mph 1012.2mb 71f
9:50am 6 13 mph 1012.5mb 72f
9:40am 5 9 mph 1012.5mb 72f
9:30am 6 9 mph 1012.5mb 72f
9:20am 6 10 mph 1012.9mb 72f
9:12am 8 23 mph 1012.9mb 72f
9:10am 8 11 mph 1012.9mb 72f
9:00am 8 11 mph 1012.5mb 72f
8:50am 8 11 mph 1012.5mb 72f
8:40am 8 17 mph 1012.5mb 72f
8:30am 15 20 mph 1012.5mb 72f
8:20am 17 23 mph 1012.5mb 72f
8:12am 21 26 mph 1012.2mb 71f
8:10am 22 24 mph 1012.2mb 71f
8:00am 23 25 mph 1012.2mb 71f
7:50am 23 25 mph 1012.5mb 71f
7:40am 22 24 mph 1012.5mb 71f
7:30am 22 24 mph 1012.5mb 71f
7:20am 23 26 mph 1012.5mb 70f
7:11am 22 26 mph 1012.5mb 71f
7:10am 22 24 mph 1012.5mb 71f
6:50am 22 25 mph 1012.5mb 70f
6:40am 23 26 mph 1012.9mb 70f
6:30am 22 24 mph 1012.9mb 70f
6:20am 21 23 mph 1012.9mb 70f
6:11am 20 25 mph 1012.9mb 70f
6:10am 20 23 mph 1012.9mb 70f
6:00am 20 22 mph 1012.9mb 70f
5:50am 20 24 mph 1012.9mb 69f
5:40am 22 25 mph 1012.9mb 70f
5:30am 20 24 mph 1012.9mb 69f
5:20am 20 23 mph 1012.9mb 70f
5:11am 17 23 mph 1012.9mb 70f
5:10am 17 23 mph 1012.9mb 70f
5:00am 16 23 mph 1013.2mb 69f
4:50am 21 23 mph 1013.2mb 69f
4:40am 21 23 mph 1013.2mb 69f
4:30am 18 21 mph 1013.2mb 69f
4:20am 17 20 mph 1013.2mb 69f
4:10am 16 21 mph 1013.2mb 69f
4:00am 14 18 mph 1013.5mb 69f
3:50am 17 21 mph 1013.5mb 69f
3:40am 16 21 mph 1013.9mb 69f
3:30am 14 21 mph 1013.9mb 69f
3:20am 20 21 mph 1013.9mb 69f
3:10am 17 22 mph 1013.9mb 69f
3:00am 18 21 mph 1014.2mb 69f
2:50am 16 20 mph 1014.2mb 69f
2:40am 15 20 mph 1014.6mb 69f
2:30am 18 22 mph 1014.6mb 69f
2:20am 18 22 mph 1014.6mb 69f
2:10am 20 23 mph 1014.6mb 69f
2:00am 21 23 mph 1014.6mb 69f
1:50am 21 23 mph 1014.6mb 69f
1:30am 21 26 mph 1014.9mb 69f
1:20am 23 26 mph 1014.9mb 69f
1:10am 24 26 mph 1014.9mb 69f
1:09am 23 28 mph 1014.9mb 69f
1:00am 24 26 mph 1014.9mb 69f
12:50am 22 26 mph 1015.2mb 69f
12:40am 23 28 mph 1015.2mb 69f
12:30am 22 30 mph 1015.6mb 68f
12:20am 28 31 mph 1015.2mb 68f
12:10am 25 30 mph 1015.6mb 69f
12:09am 25
mph
1015.6mb 69f
12:00am 29 31 mph 1015.2mb 69f
Fri 08/29 11:50pm 28 30 mph 1015.6mb 69f
11:40pm 29 32 mph 1015.2mb 69f
11:30pm 25 29 mph 1015.6mb 69f
11:20pm 28 30 mph 1015.6mb 69f
11:10pm 25 30 mph 1015.6mb 69f
11:08pm 26
mph
1015.6mb 69f
11:00pm 25 30 mph 1015.6mb 69f
10:50pm 26 29 mph 1015.6mb 69f
10:40pm 26 31 mph 1015.6mb 69f
10:31pm 25 29 mph 1015.6mb 69f
10:30pm 25 29 mph 1015.6mb 69f
10:20pm 23 28 mph 1015.9mb 69f
10:10pm 24 29 mph 1015.6mb 69f
10:08pm 25 29 mph 1015.9mb 69f
10:00pm 24 28 mph 1015.9mb 69f
9:50pm 22 26 mph 1015.9mb 69f
9:40pm 24 28 mph 1015.9mb 69f
9:30pm 23 29 mph 1015.9mb 69f
9:20pm 22 29 mph 1016.3mb 69f
9:10pm 25 29 mph 1016.3mb 69f
9:07pm 25
mph
1016.3mb 69f
9:00pm 26 29 mph 1016.3mb 69f
8:50pm 26 29 mph 1016.3mb 69f
8:47pm 26 29 mph 1015.9mb 69f
8:40pm 26 29 mph 1015.9mb 69f
8:30pm 21 24 mph 1015.9mb 69f
8:10pm 24 28 mph 1015.9mb 70f
8:07pm 24 28 mph 1015.9mb 70f
8:00pm 22 28 mph 1015.9mb 70f
7:50pm 23 26 mph 1015.9mb 70f
7:40pm 22 26 mph 1015.9mb 70f
7:30pm 22 25 mph 1015.9mb 70f
7:20pm 21 25 mph 1015.9mb 70f
7:10pm 22 25 mph 1015.9mb 70f
7:06pm 21 26 mph 1015.9mb 70f
7:00pm 24 26 mph 1015.9mb 70f
6:50pm 22 25 mph 1016.3mb 70f
6:30pm 20 24 mph 1016.3mb 70f
6:20pm 22 24 mph 1016.3mb 70f
6:10pm 20 24 mph 1016.3mb 70f
6:06pm 18 25 mph 1016.6mb 70f
6:00pm 23 25 mph 1016.6mb 70f
5:50pm 17 21 mph 1016.6mb 71f
5:40pm 18 20 mph 1016.6mb 71f
5:30pm 20 22 mph 1016.9mb 71f
5:20pm 21 25 mph 1016.9mb 71f
5:10pm 21 22 mph 1016.9mb 71f
5:06pm 21 23 mph 1016.9mb 71f
5:00pm 20 23 mph 1016.9mb 71f
4:50pm 18 21 mph 1016.9mb 71f
4:40pm 17 20 mph 1016.9mb 71f
4:30pm 17 22 mph 1016.9mb 71f
4:20pm 18 22 mph 1016.9mb 71f
4:10pm 20 23 mph 1016.9mb 71f
4:05pm 21 23 mph 1017.3mb 71f
4:00pm 21 23 mph 1017.3mb 71f
3:50pm 16 18 mph 1017.6mb 71f
3:40pm 17 20 mph 1017.3mb 71f
3:30pm 18 20 mph 1017.6mb 71f
3:20pm 18 22 mph 1017.6mb 72f
3:10pm 16 21 mph 1017.6mb 71f
3:05pm 10 14 mph 1017.6mb 71f
2:50pm 5 7 mph 1017.9mb 71f
2:40pm 3 9 mph 1018.3mb 71f
2:30pm 7 13 mph 1018.3mb 71f
2:20pm 10 14 mph 1018.3mb 71f
2:10pm 11 13 mph 1018.3mb 71f
2:04pm 11 17 mph 1018.3mb 71f
2:00pm 10 15 mph 1018.6mb 71f
1:50pm 14 15 mph 1018.6mb 71f
1:40pm 15 17 mph 1018.6mb 70f
1:30pm 15 16 mph 1018.6mb 70f
1:20pm 15 16 mph 1018.6mb 70f
1:10pm 15 17 mph 1019mb 70f
1:04pm 16 21 mph 1019mb 70f
1:00pm 15 17 mph 1019mb 70f
12:50pm 15 17 mph 1019mb 69f
12:40pm 16 17 mph 1019mb 69f
12:30pm 14 20 mph 1019.3mb 69f
12:20pm 18 20 mph 1019.3mb 68f
12:10pm 18 21 mph 1019.3mb 68f